createdAt,value
2017-12-05T00:02:25.115Z,103401.11
2017-12-05T00:04:53.467Z,103394.86
2017-12-05T00:07:21.784Z,103393.30
2017-12-05T00:09:50.111Z,103396.33
2017-12-05T00:12:19.229Z,103394.44
2017-12-05T00:14:47.540Z,103387.34
2017-12-05T00:17:16.005Z,103382.50
2017-12-05T00:19:44.308Z,103384.25
2017-12-05T00:22:12.611Z,103379.08
2017-12-05T00:24:40.981Z,103385.19
2017-12-05T00:27:09.306Z,103380.70
2017-12-05T00:29:37.641Z,103381.34
2017-12-05T00:32:06.746Z,103376.30
2017-12-05T00:34:35.843Z,103377.20
2017-12-05T00:37:05.661Z,103375.09
2017-12-05T00:39:35.481Z,103368.00
2017-12-05T00:42:03.790Z,103371.29
2017-12-05T00:44:32.853Z,103372.89
2017-12-05T00:47:02.680Z,103371.27
2017-12-05T00:49:31.103Z,103369.34
2017-12-05T00:51:59.436Z,103368.44
2017-12-05T00:54:28.525Z,103375.75
2017-12-05T00:56:56.868Z,103365.44
2017-12-05T00:59:25.189Z,103368.20
2017-12-05T01:01:53.523Z,103370.47
2017-12-05T01:04:21.836Z,103375.64
2017-12-05T01:06:50.158Z,103370.46
2017-12-05T01:09:19.246Z,103368.08
2017-12-05T01:11:47.570Z,103364.01
2017-12-05T01:14:15.943Z,103370.06
2017-12-05T01:16:44.274Z,103366.91
2017-12-05T01:19:12.591Z,103363.81
2017-12-05T01:21:41.690Z,103363.31
2017-12-05T01:24:10.800Z,103359.18
2017-12-05T01:26:39.130Z,103359.79
2017-12-05T01:29:07.458Z,103356.78
2017-12-05T01:31:35.796Z,103365.51
2017-12-05T01:34:04.188Z,103360.44
2017-12-05T01:36:33.317Z,103362.28
2017-12-05T01:39:01.768Z,103362.15
2017-12-05T01:41:30.098Z,103370.03
2017-12-05T01:43:58.535Z,103373.61
2017-12-05T01:46:27.700Z,103370.25
2017-12-05T01:48:56.005Z,103360.27
2017-12-05T01:51:24.354Z,103358.70
2017-12-05T01:53:52.680Z,103357.23
2017-12-05T01:56:21.022Z,103363.84
2017-12-05T01:58:49.443Z,103357.78
2017-12-05T02:01:19.466Z,103360.53
2017-12-05T02:03:48.586Z,103361.93
2017-12-05T02:06:17.674Z,103359.91
2017-12-05T02:08:46.672Z,103363.50
2017-12-05T02:11:16.338Z,103369.76
2017-12-05T02:13:44.681Z,103367.58
2017-12-05T02:16:13.774Z,103369.41
2017-12-05T02:18:42.882Z,103364.84
2017-12-05T02:21:11.218Z,103364.97
2017-12-05T02:23:39.537Z,103355.27
2017-12-05T02:26:08.634Z,103359.20
2017-12-05T02:28:37.765Z,103357.45
2017-12-05T02:31:06.069Z,103360.19
2017-12-05T02:33:34.387Z,103359.20
2017-12-05T02:36:03.585Z,103358.36
2017-12-05T02:38:31.925Z,103361.03
2017-12-05T02:41:10.077Z,103361.87
2017-12-05T02:43:39.183Z,103368.41
2017-12-05T02:46:08.306Z,103367.62
2017-12-05T02:48:36.611Z,103357.09
2017-12-05T02:51:04.935Z,103360.83
2017-12-05T02:53:34.035Z,103356.16
2017-12-05T02:56:03.143Z,103352.80
2017-12-05T02:58:32.220Z,103353.02
2017-12-05T03:01:00.516Z,103353.86
2017-12-05T03:03:29.679Z,103348.94
2017-12-05T03:05:58.004Z,103353.44
2017-12-05T03:08:27.092Z,103354.15
2017-12-05T03:10:56.266Z,103351.83
2017-12-05T03:13:24.587Z,103350.92
2017-12-05T03:15:53.684Z,103349.58
2017-12-05T03:18:22.012Z,103344.66
2017-12-05T03:20:50.534Z,103341.56
2017-12-05T03:23:18.845Z,103341.92
2017-12-05T03:25:47.158Z,103340.80
2017-12-05T03:28:15.483Z,103337.41
2017-12-05T03:30:44.560Z,103333.33
2017-12-05T03:33:12.886Z,103338.73
2017-12-05T03:35:41.201Z,103338.25
2017-12-05T03:38:10.288Z,103343.81
2017-12-05T03:40:38.636Z,103346.48
2017-12-05T03:43:06.961Z,103347.53
2017-12-05T03:45:35.334Z,103348.23
2017-12-05T03:48:04.238Z,103353.22
2017-12-05T03:50:32.555Z,103353.99
2017-12-05T03:53:00.862Z,103358.91
2017-12-05T03:55:29.944Z,103358.49
2017-12-05T03:57:59.026Z,103361.52
2017-12-05T04:00:27.354Z,103355.82
2017-12-05T04:02:55.692Z,103356.53
2017-12-05T04:05:24.005Z,103360.11
2017-12-05T04:07:52.326Z,103360.18
2017-12-05T04:10:20.654Z,103361.09
2017-12-05T04:12:49.740Z,103364.83
2017-12-05T04:15:18.070Z,103359.70
2017-12-05T04:17:46.400Z,103365.40
2017-12-05T04:20:14.755Z,103376.58
2017-12-05T04:22:43.194Z,103365.95
2017-12-05T04:25:11.518Z,103362.58
2017-12-05T04:27:39.849Z,103358.02
2017-12-05T04:30:08.182Z,103362.02
2017-12-05T04:32:36.655Z,103364.69
2017-12-05T04:35:04.980Z,103361.46
2017-12-05T04:37:35.784Z,103360.40
2017-12-05T04:40:04.149Z,103360.89
2017-12-05T04:42:32.488Z,103360.47
2017-12-05T04:45:01.579Z,103367.64
2017-12-05T04:47:30.672Z,103361.59
2017-12-05T04:49:59.024Z,103358.78
2017-12-05T04:52:27.520Z,103365.39
2017-12-05T04:54:55.835Z,103363.91
2017-12-05T04:57:24.922Z,103361.52
2017-12-05T04:59:54.024Z,103358.17
2017-12-05T05:02:23.119Z,103351.81
2017-12-05T05:04:52.190Z,103356.59
2017-12-05T05:07:20.512Z,103361.66
2017-12-05T05:09:49.596Z,103349.64
2017-12-05T05:12:17.942Z,103356.19
2017-12-05T05:14:46.262Z,103358.37
2017-12-05T05:17:15.371Z,103360.20
2017-12-05T05:19:44.462Z,103357.45
2017-12-05T05:22:13.608Z,103358.72
2017-12-05T05:24:41.928Z,103365.89
2017-12-05T05:27:10.358Z,103362.86
2017-12-05T05:29:38.657Z,103355.05
2017-12-05T05:32:07.008Z,103361.59
2017-12-05T05:34:35.360Z,103361.02
2017-12-05T05:37:03.688Z,103373.41
2017-12-05T05:39:32.805Z,103366.86
2017-12-05T05:42:01.136Z,103373.54
2017-12-05T05:44:30.942Z,103376.34
2017-12-05T05:47:00.024Z,103374.67
2017-12-05T05:49:29.144Z,103367.64
2017-12-05T05:51:58.258Z,103377.06
2017-12-05T05:54:26.612Z,103381.48
2017-12-05T05:56:54.920Z,103381.42
2017-12-05T05:59:23.276Z,103380.36
2017-12-05T06:01:51.756Z,103373.39
2017-12-05T06:04:20.114Z,103383.47
2017-12-05T06:06:48.434Z,103384.50
2017-12-05T06:09:17.537Z,103387.88
2017-12-05T06:11:46.649Z,103386.34
2017-12-05T06:14:14.989Z,103391.61
2017-12-05T06:16:44.784Z,103381.84
2017-12-05T06:19:13.244Z,103384.09
2017-12-05T06:21:41.650Z,103381.70
2017-12-05T06:24:09.976Z,103387.54
2017-12-05T06:26:39.060Z,103396.89
2017-12-05T06:29:07.375Z,103394.71
2017-12-05T06:31:35.705Z,103393.58
2017-12-05T06:34:04.046Z,103390.40
2017-12-05T06:36:32.346Z,103391.12
2017-12-05T06:39:00.684Z,103382.82
2017-12-05T06:41:29.807Z,103387.23
2017-12-05T06:43:58.138Z,103402.77
2017-12-05T06:46:27.222Z,103395.11
2017-12-05T06:48:55.571Z,103398.27
2017-12-05T06:51:23.952Z,103403.61
2017-12-05T06:53:52.283Z,103404.81
2017-12-05T06:56:20.610Z,103406.92
2017-12-05T06:58:48.943Z,103399.63
2017-12-05T07:01:18.802Z,103401.50
2017-12-05T07:03:47.109Z,103406.78
2017-12-05T07:06:15.446Z,103413.03
2017-12-05T07:08:44.539Z,103415.45
2017-12-05T07:11:13.627Z,103413.47
2017-12-05T07:13:41.958Z,103411.14
2017-12-05T07:16:10.334Z,103411.20
2017-12-05T07:18:38.684Z,103409.73
2017-12-05T07:21:08.513Z,103411.29
2017-12-05T07:23:36.862Z,103412.48
2017-12-05T07:26:05.190Z,103418.61
2017-12-05T07:28:33.537Z,103414.93
2017-12-05T07:31:01.862Z,103420.86
2017-12-05T07:33:30.230Z,103424.29
2017-12-05T07:35:58.561Z,103422.81
2017-12-05T07:38:26.908Z,103420.06
2017-12-05T07:40:55.244Z,103418.79
2017-12-05T07:43:23.547Z,103424.00
2017-12-05T07:45:51.903Z,103424.13
2017-12-05T07:48:20.219Z,103425.67
2017-12-05T07:50:48.540Z,103424.89
2017-12-05T07:53:16.869Z,103427.07
2017-12-05T07:55:46.023Z,103426.80
2017-12-05T07:58:14.290Z,103425.76
2017-12-05T08:00:42.624Z,103421.41
2017-12-05T08:03:12.080Z,103431.24
2017-12-05T08:05:40.458Z,103424.87
2017-12-05T08:08:09.560Z,103431.48
2017-12-05T08:10:38.027Z,103434.91
2017-12-05T08:13:06.356Z,103427.34
2017-12-05T08:15:34.671Z,103439.48
2017-12-05T08:18:02.991Z,103435.27
2017-12-05T08:20:31.307Z,103435.85
2017-12-05T08:23:00.375Z,103435.87
2017-12-05T08:25:28.692Z,103429.39
2017-12-05T08:27:57.795Z,103430.95
2017-12-05T08:30:26.893Z,103432.33
2017-12-05T08:32:55.217Z,103426.84
2017-12-05T08:35:23.565Z,103432.05
2017-12-05T08:37:51.938Z,103439.79
2017-12-05T08:40:20.200Z,103444.36
2017-12-05T08:42:48.767Z,103442.17
2017-12-05T08:45:17.083Z,103444.87
2017-12-05T08:47:45.568Z,103443.19
2017-12-05T08:50:14.667Z,103446.55
2017-12-05T08:52:43.059Z,103444.52
2017-12-05T08:55:11.592Z,103445.08
2017-12-05T08:57:39.904Z,103443.95
2017-12-05T09:00:08.245Z,103441.34
2017-12-05T09:02:36.577Z,103437.89
2017-12-05T09:05:04.893Z,103446.31
2017-12-05T09:07:33.981Z,103441.25
2017-12-05T09:10:03.103Z,103437.59
2017-12-05T09:12:31.442Z,103440.69
2017-12-05T09:15:00.581Z,103433.27
2017-12-05T09:17:29.655Z,103434.05
2017-12-05T09:19:57.963Z,103438.91
2017-12-05T09:22:26.281Z,103437.14
2017-12-05T09:24:54.579Z,103437.14
2017-12-05T09:27:22.998Z,103432.36
2017-12-05T09:29:52.061Z,103434.55
2017-12-05T09:32:20.357Z,103439.82
2017-12-05T09:34:48.669Z,103433.13
2017-12-05T09:37:17.753Z,103441.16
2017-12-05T09:39:46.809Z,103436.66
2017-12-05T09:42:15.127Z,103439.47
2017-12-05T09:44:43.437Z,103442.41
2017-12-05T09:47:11.753Z,103438.02
2017-12-05T09:49:40.054Z,103439.42
2017-12-05T09:52:08.361Z,103436.75
2017-12-05T09:57:05.853Z,103439.82
2017-12-05T09:59:34.957Z,103433.28
2017-12-05T10:02:03.379Z,103433.07
2017-12-05T10:04:31.703Z,103431.31
2017-12-05T10:07:00.037Z,103427.16
2017-12-05T10:09:28.407Z,103430.12
2017-12-05T10:11:56.747Z,103426.57
2017-12-05T10:14:25.079Z,103421.44
2017-12-05T10:16:53.425Z,103419.75
2017-12-05T10:19:22.513Z,103429.39
2017-12-05T10:21:51.683Z,103422.75
2017-12-05T10:24:20.009Z,103423.03
2017-12-05T10:26:49.093Z,103429.36
2017-12-05T10:29:17.429Z,103424.64
2017-12-05T10:31:45.756Z,103426.80
2017-12-05T10:34:14.937Z,103425.59
2017-12-05T10:36:43.293Z,103431.72
2017-12-05T10:39:11.595Z,103432.08
2017-12-05T10:41:39.943Z,103425.25
2017-12-05T10:44:09.101Z,103427.92
2017-12-05T10:46:37.413Z,103428.91
2017-12-05T10:49:05.715Z,103429.93
2017-12-05T10:51:34.016Z,103421.55
2017-12-05T10:54:02.315Z,103418.44
2017-12-05T10:56:30.667Z,103426.61
2017-12-05T10:58:58.963Z,103423.86
2017-12-05T11:01:27.273Z,103422.63
2017-12-05T11:03:55.599Z,103417.97
2017-12-05T11:06:23.938Z,103425.66
2017-12-05T11:08:52.231Z,103417.91
2017-12-05T11:11:21.331Z,103426.26
2017-12-05T11:13:50.407Z,103420.55
2017-12-05T11:16:18.712Z,103419.42
2017-12-05T11:18:47.797Z,103422.53
2017-12-05T11:21:16.118Z,103415.31
2017-12-05T11:23:44.437Z,103419.40
2017-12-05T11:26:12.758Z,103423.70
2017-12-05T11:28:41.848Z,103418.73
2017-12-05T11:31:10.939Z,103415.52
2017-12-05T11:33:39.269Z,103414.75
2017-12-05T11:36:07.579Z,103414.86
2017-12-05T11:38:35.885Z,103412.75
2017-12-05T11:41:05.005Z,103414.30
2017-12-05T11:43:34.079Z,103414.16
2017-12-05T11:46:02.416Z,103418.09
2017-12-05T11:48:30.720Z,103410.35
2017-12-05T11:50:59.054Z,103418.09
2017-12-05T11:53:28.143Z,103416.06
2017-12-05T11:55:57.241Z,103414.37
2017-12-05T11:58:26.320Z,103413.45
2017-12-05T12:00:54.623Z,103408.13
2017-12-05T12:03:23.723Z,103412.57
2017-12-05T12:05:52.855Z,103408.55
2017-12-05T12:08:21.172Z,103404.66
2017-12-05T12:10:49.479Z,103406.34
2017-12-05T12:13:17.796Z,103401.27
2017-12-05T12:15:46.108Z,103395.95
2017-12-05T12:18:14.415Z,103402.36
2017-12-05T12:20:42.738Z,103396.73
2017-12-05T12:23:11.050Z,103393.06
2017-12-05T12:25:39.425Z,103399.48
2017-12-05T12:28:07.738Z,103391.66
2017-12-05T12:30:36.051Z,103384.77
2017-12-05T12:33:04.375Z,103389.16
2017-12-05T12:35:32.687Z,103386.42
2017-12-05T12:38:01.013Z,103386.84
2017-12-05T12:40:29.326Z,103390.11
2017-12-05T12:42:57.647Z,103380.23
2017-12-05T12:45:25.977Z,103375.22
2017-12-05T12:47:54.296Z,103371.84
2017-12-05T12:50:22.645Z,103373.74
2017-12-05T12:52:50.998Z,103375.89
2017-12-05T12:55:19.316Z,103371.84
2017-12-05T12:57:48.350Z,103376.28
2017-12-05T13:00:16.651Z,103387.05
2017-12-05T13:02:44.957Z,103381.91
2017-12-05T13:05:13.297Z,103374.77
2017-12-05T13:07:41.620Z,103373.44
2017-12-05T13:10:09.935Z,103376.95
2017-12-05T13:12:38.256Z,103374.84
2017-12-05T13:15:06.589Z,103376.32
2017-12-05T13:17:35.688Z,103367.59
2017-12-05T13:20:03.992Z,103382.61
2017-12-05T13:22:32.311Z,103386.27
2017-12-05T13:25:00.635Z,103376.42
2017-12-05T13:27:28.957Z,103378.88
2017-12-05T13:29:58.031Z,103379.48
2017-12-05T13:32:26.403Z,103379.91
2017-12-05T13:34:54.724Z,103377.76
2017-12-05T13:37:23.128Z,103375.22
2017-12-05T13:39:51.553Z,103371.56
2017-12-05T13:42:19.816Z,103367.62
2017-12-05T13:44:48.139Z,103371.07
2017-12-05T13:47:17.234Z,103366.00
2017-12-05T13:49:45.539Z,103373.67
2017-12-05T13:52:13.854Z,103366.59
2017-12-05T13:54:42.165Z,103366.06
2017-12-05T13:57:10.482Z,103363.00
2017-12-05T13:59:38.915Z,103360.88
2017-12-05T14:02:07.257Z,103356.66
2017-12-05T14:04:36.463Z,103363.98
2017-12-05T14:07:04.777Z,103351.36
2017-12-05T14:09:33.083Z,103346.30
2017-12-05T14:12:01.386Z,103352.84
2017-12-05T14:14:30.610Z,103354.10
2017-12-05T14:16:58.988Z,103351.92
2017-12-05T14:19:27.302Z,103347.91
2017-12-05T14:21:55.685Z,103351.04
2017-12-05T14:24:24.010Z,103357.16
2017-12-05T14:26:53.133Z,103356.80
2017-12-05T14:29:21.455Z,103345.27
2017-12-05T14:31:49.800Z,103358.20
2017-12-05T14:34:18.128Z,103352.65
2017-12-05T14:36:46.426Z,103355.17
2017-12-05T14:39:15.507Z,103348.14
2017-12-05T14:41:44.606Z,103356.09
2017-12-05T14:44:13.750Z,103353.72
2017-12-05T14:46:42.108Z,103356.11
2017-12-05T14:49:10.460Z,103358.36
2017-12-05T14:51:38.774Z,103356.32
2017-12-05T14:54:07.360Z,103351.33
2017-12-05T14:56:36.443Z,103357.23
2017-12-05T14:59:05.522Z,103352.52
2017-12-05T15:01:33.854Z,103362.92
2017-12-05T15:04:02.170Z,103357.78
2017-12-05T15:06:30.486Z,103364.21
2017-12-05T15:08:59.654Z,103366.04
2017-12-05T15:11:28.766Z,103368.14
2017-12-05T15:13:57.104Z,103361.31
2017-12-05T15:16:25.480Z,103370.45
2017-12-05T15:18:53.788Z,103374.83
2017-12-05T15:21:22.102Z,103374.96
2017-12-05T15:23:51.249Z,103377.92
2017-12-05T15:26:20.298Z,103373.70
2017-12-05T15:28:48.626Z,103375.30
2017-12-05T15:31:16.922Z,103376.64
2017-12-05T15:33:45.259Z,103367.84
2017-12-05T15:36:14.356Z,103367.93
2017-12-05T15:38:43.496Z,103374.03
2017-12-05T15:41:11.834Z,103379.86
2017-12-05T15:43:40.940Z,103384.85
2017-12-05T15:46:09.266Z,103381.34
2017-12-05T15:48:37.620Z,103375.64
2017-12-05T15:51:05.925Z,103379.16
2017-12-05T15:53:34.232Z,103384.20
2017-12-05T15:56:02.552Z,103387.66
2017-12-05T15:58:30.859Z,103386.61
2017-12-05T16:00:59.234Z,103388.36
2017-12-05T16:03:27.562Z,103382.52
2017-12-05T16:05:55.870Z,103385.32
2017-12-05T16:08:24.937Z,103391.93
2017-12-05T16:10:53.500Z,103382.88
2017-12-05T16:13:21.892Z,103391.81
2017-12-05T16:15:50.202Z,103384.78
2017-12-05T16:18:18.508Z,103375.14
2017-12-05T16:20:46.807Z,103374.09
2017-12-05T16:23:15.126Z,103373.94
2017-12-05T16:25:43.449Z,103374.21
2017-12-05T16:28:11.782Z,103381.16
2017-12-05T16:30:40.101Z,103386.56
2017-12-05T16:33:09.192Z,103384.12
2017-12-05T16:35:38.266Z,103384.81
2017-12-05T16:38:06.886Z,103392.95
2017-12-05T16:40:35.969Z,103387.61
2017-12-05T16:43:04.269Z,103382.50
2017-12-05T16:45:33.354Z,103384.19
2017-12-05T16:48:02.523Z,103381.94
2017-12-05T16:50:30.853Z,103382.56
2017-12-05T16:52:59.952Z,103375.89
2017-12-05T16:55:28.360Z,103377.78
2017-12-05T16:57:56.676Z,103374.69
2017-12-05T17:00:25.197Z,103376.38
2017-12-05T17:02:53.548Z,103377.09
2017-12-05T17:05:23.416Z,103370.70
2017-12-05T17:07:51.706Z,103376.95
2017-12-05T17:10:20.058Z,103383.20
2017-12-05T17:12:49.135Z,103377.52
2017-12-05T17:15:18.216Z,103377.16
2017-12-05T17:17:51.309Z,103373.22
2017-12-05T17:20:19.629Z,103376.45
2017-12-05T17:22:47.950Z,103368.57
2017-12-05T17:25:16.383Z,103368.57
2017-12-05T17:27:45.471Z,103374.82
2017-12-05T17:30:13.799Z,103372.37
2017-12-05T17:32:42.123Z,103382.36
2017-12-05T17:35:10.441Z,103386.56
2017-12-05T17:37:38.783Z,103379.61
2017-12-05T17:40:07.107Z,103375.59
2017-12-05T17:42:35.421Z,103373.84
2017-12-05T17:45:03.751Z,103382.41
2017-12-05T17:47:32.856Z,103379.88
2017-12-05T17:50:01.934Z,103380.78
2017-12-05T17:52:30.253Z,103377.33
2017-12-05T17:54:58.570Z,103376.36
2017-12-05T17:57:26.879Z,103376.28
2017-12-05T17:59:55.963Z,103378.31
2017-12-05T18:02:25.819Z,103376.00
2017-12-05T18:04:54.129Z,103372.77
2017-12-05T18:07:22.445Z,103366.59
2017-12-05T18:09:51.587Z,103363.01
2017-12-05T18:12:19.935Z,103364.83
2017-12-05T18:14:48.229Z,103360.41
2017-12-05T18:17:16.523Z,103365.81
2017-12-05T18:19:44.857Z,103357.31
2017-12-05T18:22:13.187Z,103365.45
2017-12-05T18:24:41.486Z,103361.13
2017-12-05T18:27:09.794Z,103355.36
2017-12-05T18:29:38.123Z,103351.84
2017-12-05T18:32:06.461Z,103353.61
2017-12-05T18:34:34.809Z,103352.70
2017-12-05T18:37:03.232Z,103343.91
2017-12-05T18:39:31.550Z,103349.80
2017-12-05T18:41:59.879Z,103346.22
2017-12-05T18:44:28.184Z,103344.33
2017-12-05T18:46:56.498Z,103346.58
2017-12-05T18:49:24.827Z,103349.60
2017-12-05T18:51:53.928Z,103346.94
2017-12-05T18:54:23.898Z,103355.27
2017-12-05T18:56:52.225Z,103352.27
2017-12-05T18:59:20.768Z,103358.59
2017-12-05T19:01:49.069Z,103345.31
2017-12-05T19:04:17.370Z,103351.84
2017-12-05T19:06:45.684Z,103352.27
2017-12-05T19:09:14.771Z,103352.34
2017-12-05T19:11:43.112Z,103347.14
2017-12-05T19:14:11.415Z,103346.36
2017-12-05T19:16:41.245Z,103351.20
2017-12-05T19:19:09.569Z,103349.86
2017-12-05T19:21:37.872Z,103347.21
2017-12-05T19:24:06.179Z,103345.90
2017-12-05T19:26:36.045Z,103343.99
2017-12-05T19:29:04.360Z,103343.59
2017-12-05T19:31:32.753Z,103346.77
2017-12-05T19:34:01.096Z,103347.11
2017-12-05T19:36:30.319Z,103340.14
2017-12-05T19:38:58.637Z,103340.78
2017-12-05T19:41:26.943Z,103339.30
2017-12-05T19:43:55.262Z,103350.77
2017-12-05T19:46:23.593Z,103341.33
2017-12-05T19:48:52.673Z,103342.03
2017-12-05T19:51:21.641Z,103350.05
2017-12-05T19:53:50.161Z,103348.08
2017-12-05T19:56:18.863Z,103341.97
2017-12-05T19:58:47.215Z,103333.47
2017-12-05T20:01:15.542Z,103325.23
2017-12-05T20:03:43.858Z,103327.08
2017-12-05T20:06:12.158Z,103321.37
2017-12-05T20:08:40.486Z,103337.20
2017-12-05T20:11:08.803Z,103342.48
2017-12-05T20:13:37.101Z,103338.06
2017-12-05T20:16:05.435Z,103336.00
2017-12-05T20:18:33.735Z,103342.00
2017-12-05T20:21:02.066Z,103340.42
2017-12-05T20:23:31.183Z,103328.22
2017-12-05T20:25:59.478Z,103332.56
2017-12-05T20:28:27.812Z,103332.98
2017-12-05T20:30:56.125Z,103321.13
2017-12-05T20:33:24.419Z,103312.03
2017-12-05T20:35:52.743Z,103304.94
2017-12-05T20:38:21.101Z,103308.30
2017-12-05T20:40:49.412Z,103303.04
2017-12-05T20:43:17.730Z,103296.64
2017-12-05T20:45:46.886Z,103305.86
2017-12-05T20:48:15.179Z,103299.72
2017-12-05T20:50:43.531Z,103298.38
2017-12-05T20:53:11.832Z,103297.40
2017-12-05T20:55:40.920Z,103308.58
2017-12-05T20:58:09.232Z,103299.74
2017-12-05T21:00:38.495Z,103293.55
2017-12-05T21:03:06.812Z,103292.99
2017-12-05T21:05:36.032Z,103289.41
2017-12-05T21:08:04.355Z,103293.19
2017-12-05T21:10:32.711Z,103292.27
2017-12-05T21:13:01.016Z,103295.86
2017-12-05T21:15:30.191Z,103296.98
2017-12-05T21:17:58.500Z,103296.72
2017-12-05T21:20:26.825Z,103298.41
2017-12-05T21:22:55.903Z,103295.73
2017-12-05T21:25:24.228Z,103292.84
2017-12-05T21:27:52.541Z,103287.77
2017-12-05T21:30:20.854Z,103292.72
2017-12-05T21:32:49.170Z,103290.67
2017-12-05T21:35:17.491Z,103285.52
2017-12-05T21:37:46.586Z,103281.88
2017-12-05T21:40:14.926Z,103283.70
2017-12-05T21:42:43.264Z,103280.05
2017-12-05T21:45:11.588Z,103273.58
2017-12-05T21:47:39.979Z,103276.75
2017-12-05T21:50:08.315Z,103279.84
2017-12-05T21:52:36.736Z,103285.06
2017-12-05T21:55:05.919Z,103283.23
2017-12-05T21:57:40.109Z,103280.08
2017-12-05T22:00:08.713Z,103273.89
2017-12-05T22:02:37.786Z,103287.66
2017-12-05T22:05:06.144Z,103273.87
2017-12-05T22:07:34.559Z,103269.38
2017-12-05T22:10:02.868Z,103273.95
2017-12-05T22:12:31.955Z,103276.07
2017-12-05T22:15:01.028Z,103272.98
2017-12-05T22:17:30.841Z,103270.02
2017-12-05T22:19:59.148Z,103269.24
2017-12-05T22:22:27.556Z,103270.72
2017-12-05T22:24:56.587Z,103279.22
2017-12-05T22:27:24.934Z,103260.95
2017-12-05T22:29:53.257Z,103258.48
2017-12-05T22:32:21.602Z,103261.08
2017-12-05T22:34:49.912Z,103262.77
2017-12-05T22:37:18.231Z,103256.46
2017-12-05T22:39:47.190Z,103274.58
2017-12-05T22:42:15.510Z,103263.77
2017-12-05T22:44:44.630Z,103266.99
2017-12-05T22:47:12.916Z,103281.86
2017-12-05T22:49:41.213Z,103266.15
2017-12-05T22:52:09.526Z,103268.61
2017-12-05T22:54:37.836Z,103257.72
2017-12-05T22:57:06.935Z,103264.02
2017-12-05T22:59:36.030Z,103270.98
2017-12-05T23:02:05.108Z,103266.13
2017-12-05T23:04:33.440Z,103268.59
2017-12-05T23:07:01.744Z,103263.19
2017-12-05T23:09:30.056Z,103257.30
2017-12-05T23:11:58.426Z,103265.94
2017-12-05T23:14:26.720Z,103249.70
2017-12-05T23:16:55.050Z,103260.80
2017-12-05T23:19:23.365Z,103255.19
2017-12-05T23:21:52.462Z,103261.28
2017-12-05T23:24:20.750Z,103256.03
2017-12-05T23:26:49.821Z,103247.38
2017-12-05T23:29:18.216Z,103254.42
2017-12-05T23:31:46.653Z,103251.52
2017-12-05T23:34:15.782Z,103252.58
2017-12-05T23:36:44.084Z,103250.41
2017-12-05T23:39:12.401Z,103248.42
2017-12-05T23:41:41.726Z,103249.02
2017-12-05T23:44:10.040Z,103249.29
2017-12-05T23:46:38.438Z,103248.44
2017-12-05T23:49:06.830Z,103255.12
2017-12-05T23:51:35.136Z,103252.66
2017-12-05T23:54:04.242Z,103246.11
2017-12-05T23:56:33.323Z,103248.72
2017-12-05T23:59:01.640Z,103251.45
